Sheridan, WY

12:43 AM MDT on August 29, 2014 (GMT -0600)
South Big Horn County | Change Station
CLOSE
Current Station
Airport
Location: Greybull,
Elevation: 3934 ft
Nearby Weather Stations

Elev 3934 ft 44.52 °N, 108.08 °W | Updated 24 minutes ago

Light Rain
Light Rain
67 °F
Feels Like 67 °F
N
5
Wind Variable Wind from East

Today
High -- | Low -- °F
--% Chance of Precip.
Yesterday
High -- | Low -- °F
Precip. -- in
6:26 AM 7:49 PM
Waxing Crescent, 12% visible
Pressure 29.95 in
Visibility 10.0 miles
Clouds Overcast 10000 ft
Dew Point 52 °F
Humidity 59%
Rainfall 0.00 in
Snow Depth Not available.
UV 0 out of 12
Pollen 8.50 out of 12
Air Quality Not available.
Flu Activity Not available.
SPECI KGEY 290619Z AUTO 08004KT 10SM VCTS -RA OVC100 19/11 A2995 RMK AO2 LTG DSNT N RAB0555 TSB0558E13 P0000 T01940111

More Conditions Fewer Conditions

Pressure 29.95 in
Visibility 10.0 miles
Clouds Overcast 10000 ft
Dew Point 52 °F
Humidity 59%
Rainfall 0.00 in
Snow Depth Not available.
UV 0 out of 12
Pollen 8.50 out of 12
Air Quality Not available.
Flu Activity Not available.
SPECI KGEY 290619Z AUTO 08004KT 10SM VCTS -RA OVC100 19/11 A2995 RMK AO2 LTG DSNT N RAB0555 TSB0558E13 P0000 T01940111

More Conditions Fewer Conditions

10-Day Weather Forecast

Almanac

Astronomy

Aug. 29, 2014 Rise Set
Actual Time 6:26 AM MDT 7:49 PM MDT
Civil Twilight 5:56 AM MDT 8:20 PM MDT
Nautical Twilight 5:19 AM MDT 8:56 PM MDT
Astronomical Twilight 4:40 AM MDT 9:35 PM MDT
Moon 10:30 AM MDT 9:36 PM MDT
Length of Visible Light 14h 24m
Length of Day
13h 23m
Tomorrow will be 2m 58s shorter.
Waxing Crescent, 12% of the Moon is Illuminated
Today
Waxing Crescent
Sep 2
First Quarter
Sep 8
Full
Sep 15
Last Quarter
Sep 24
New

Today's Extremes

State Highs State Lows

Community

WunderPhotos

Upload Photos

1,748,197 photos uploaded!

Nearby

Snow Depth

Station Depth Elevation
Big Goose 0 in 7990 ft
Sucker Creek 0 in 8880 ft
Dome Lake 0 in 8880 ft
Cloud Peak Reservoir 0 in 9860 ft
Burgess Junction 1 in 7880 ft

Earthquake Activity

City Distance Mag. Time & Date
No recent earthquake activity has been reported nearby.
Minimum magnitude displayed is 2.5.

Coastal Water Temperatures

Place Temperature
No Stations Reporting

Nearby Weather Stations